AFR79TA LFPG-LFBD
Flight info
| Callsign | AFR79TA |
|---|---|
| Flight time | N/A |
| Altitude | 29000 |
| Route | AGOPA DCT ARKIP DCT ARNAV DCT LMG |
| Aircraft | A320/M-SDE3FGHIRWY/LB1 |
Departure
| Time | 2026-05-04 20:55 |
|---|---|
| Airport | Charles de Gaulle International Airport (LFPG) |
Arrival
| Time | N/A |
|---|---|
| Airport | Bordeaux–Mérignac Airport (LFBD) |
| Time | Latitude | Longitude | Altitude | Speed | Heading |
|---|---|---|---|---|---|
| 2026-05-04 20:30 | 49.00252 | 2.58407 | 355 ft | 0 kts | 85° |
| 2026-05-04 20:45 | 49.00251 | 2.58395 | 354 ft | 4 kts | 85° |
| 2026-05-04 20:45 | 49.00250 | 2.58355 | 357 ft | 4 kts | 94° |
| 2026-05-04 20:45 | 49.00255 | 2.58316 | 357 ft | 4 kts | 122° |
| 2026-05-04 20:46 | 49.00271 | 2.58296 | 362 ft | 1 kts | 175° |
| 2026-05-04 20:46 | 49.00272 | 2.58296 | 362 ft | 0 kts | 175° |
| 2026-05-04 20:48 | 49.00270 | 2.58296 | 362 ft | 2 kts | 175° |
| 2026-05-04 20:48 | 49.00257 | 2.58298 | 359 ft | 1 kts | 175° |
| 2026-05-04 20:48 | 49.00242 | 2.58299 | 361 ft | 5 kts | 175° |
| 2026-05-04 20:49 | 49.00185 | 2.58306 | 354 ft | 12 kts | 175° |
| 2026-05-04 20:49 | 49.00111 | 2.58316 | 359 ft | 9 kts | 175° |
| 2026-05-04 20:49 | 49.00035 | 2.58314 | 357 ft | 14 kts | 198° |
| 2026-05-04 20:49 | 49.00004 | 2.58177 | 354 ft | 14 kts | 267° |
| 2026-05-04 20:50 | 48.99995 | 2.58001 | 354 ft | 19 kts | 266° |
| 2026-05-04 20:50 | 48.99985 | 2.57796 | 360 ft | 19 kts | 265° |
| 2026-05-04 20:50 | 48.99972 | 2.57593 | 359 ft | 19 kts | 265° |
| 2026-05-04 20:50 | 48.99962 | 2.57395 | 354 ft | 19 kts | 265° |
| 2026-05-04 20:51 | 48.99952 | 2.57202 | 354 ft | 18 kts | 265° |
| 2026-05-04 20:51 | 48.99941 | 2.57016 | 356 ft | 17 kts | 265° |
| 2026-05-04 20:51 | 48.99932 | 2.56839 | 354 ft | 16 kts | 265° |
| 2026-05-04 20:51 | 48.99922 | 2.56660 | 354 ft | 19 kts | 266° |
| 2026-05-04 20:52 | 48.99911 | 2.56454 | 360 ft | 19 kts | 266° |
| 2026-05-04 20:52 | 48.99902 | 2.56256 | 358 ft | 18 kts | 265° |
| 2026-05-04 20:52 | 48.99892 | 2.56074 | 354 ft | 16 kts | 265° |
| 2026-05-04 20:52 | 48.99896 | 2.55911 | 354 ft | 15 kts | 283° |
| 2026-05-04 20:53 | 48.99867 | 2.55800 | 354 ft | 10 kts | 200° |
| 2026-05-04 20:53 | 48.99807 | 2.55801 | 362 ft | 10 kts | 175° |
| 2026-05-04 20:53 | 48.99726 | 2.55811 | 354 ft | 14 kts | 175° |
| 2026-05-04 20:53 | 48.99639 | 2.55822 | 354 ft | 10 kts | 175° |
| 2026-05-04 20:54 | 48.99604 | 2.55853 | 355 ft | 7 kts | 120° |
| 2026-05-04 20:54 | 48.99606 | 2.55953 | 354 ft | 26 kts | 84° |
| 2026-05-04 20:54 | 48.99642 | 2.56620 | 363 ft | 96 kts | 85° |
| 2026-05-04 20:54 | 48.99712 | 2.57928 | 355 ft | 149 kts | 85° |
| 2026-05-04 20:55 | 48.99804 | 2.59710 | 503 ft | 180 kts | 86° |
| 2026-05-04 20:55 | 48.99890 | 2.61637 | 1196 ft | 183 kts | 86° |
| 2026-05-04 20:55 | 48.99993 | 2.63577 | 1967 ft | 185 kts | 85° |
| 2026-05-04 20:55 | 49.00109 | 2.65602 | 2414 ft | 202 kts | 84° |
| 2026-05-04 20:56 | 49.00232 | 2.67845 | 2775 ft | 224 kts | 84° |
| 2026-05-04 20:56 | 49.00367 | 2.70349 | 3261 ft | 249 kts | 85° |
| 2026-05-04 20:56 | 49.00511 | 2.73038 | 4073 ft | 260 kts | 85° |
| 2026-05-04 20:56 | 49.00657 | 2.75813 | 5017 ft | 265 kts | 85° |
| 2026-05-04 20:57 | 49.00686 | 2.78636 | 5959 ft | 269 kts | 97° |
| 2026-05-04 20:57 | 49.00426 | 2.81480 | 6840 ft | 273 kts | 99° |
| 2026-05-04 20:57 | 49.00122 | 2.84351 | 7697 ft | 277 kts | 99° |
| 2026-05-04 20:57 | 48.99569 | 2.87169 | 8515 ft | 281 kts | 119° |
| 2026-05-04 20:58 | 48.98324 | 2.89459 | 9339 ft | 285 kts | 143° |
| 2026-05-04 20:58 | 48.96541 | 2.90756 | 10156 ft | 288 kts | 168° |
| 2026-05-04 20:58 | 48.94542 | 2.90788 | 10894 ft | 291 kts | 193° |
| 2026-05-04 20:58 | 48.92663 | 2.89509 | 11310 ft | 309 kts | 218° |
| 2026-05-04 20:59 | 48.91049 | 2.87201 | 11641 ft | 327 kts | 225° |
| 2026-05-04 20:59 | 48.89431 | 2.84722 | 12289 ft | 333 kts | 225° |
| 2026-05-04 20:59 | 48.87790 | 2.82196 | 13008 ft | 338 kts | 225° |
| 2026-05-04 20:59 | 48.86125 | 2.79643 | 13756 ft | 342 kts | 224° |
| 2026-05-04 21:00 | 48.84440 | 2.77080 | 14384 ft | 345 kts | 224° |
| 2026-05-04 21:00 | 48.82729 | 2.74502 | 15050 ft | 348 kts | 224° |
| 2026-05-04 21:00 | 48.81002 | 2.71913 | 15696 ft | 350 kts | 224° |
| 2026-05-04 21:00 | 48.79261 | 2.69310 | 16353 ft | 353 kts | 224° |
| 2026-05-04 21:01 | 48.77481 | 2.66728 | 17006 ft | 355 kts | 223° |
| 2026-05-04 21:01 | 48.75663 | 2.64171 | 17650 ft | 358 kts | 222° |
| 2026-05-04 21:01 | 48.73818 | 2.61616 | 18293 ft | 361 kts | 222° |
| 2026-05-04 21:01 | 48.71950 | 2.59046 | 18772 ft | 365 kts | 222° |
| 2026-05-04 21:02 | 48.70088 | 2.56485 | 18909 ft | 367 kts | 222° |
| 2026-05-04 21:02 | 48.68178 | 2.53849 | 18975 ft | 367 kts | 222° |
| 2026-05-04 21:02 | 48.66326 | 2.51276 | 18974 ft | 366 kts | 222° |
| 2026-05-04 21:02 | 48.64455 | 2.48663 | 18971 ft | 366 kts | 222° |
| 2026-05-04 21:03 | 48.62582 | 2.46051 | 18974 ft | 366 kts | 222° |
| 2026-05-04 21:03 | 48.60712 | 2.43451 | 18969 ft | 364 kts | 222° |
| 2026-05-04 21:03 | 48.58848 | 2.40860 | 18966 ft | 364 kts | 222° |
| 2026-05-04 21:03 | 48.56988 | 2.38276 | 18965 ft | 364 kts | 222° |
| 2026-05-04 21:04 | 48.55124 | 2.35694 | 18967 ft | 364 kts | 222° |
| 2026-05-04 21:04 | 48.53254 | 2.33111 | 18961 ft | 364 kts | 222° |
| 2026-05-04 21:04 | 48.51391 | 2.30541 | 18934 ft | 364 kts | 222° |
| 2026-05-04 21:04 | 48.49524 | 2.27967 | 18935 ft | 364 kts | 222° |
| 2026-05-04 21:05 | 48.47657 | 2.25388 | 18938 ft | 364 kts | 222° |
| 2026-05-04 21:05 | 48.45792 | 2.22811 | 18929 ft | 364 kts | 222° |
| 2026-05-04 21:05 | 48.43930 | 2.20233 | 18932 ft | 364 kts | 222° |
| 2026-05-04 21:05 | 48.42069 | 2.17658 | 18930 ft | 364 kts | 222° |
| 2026-05-04 21:06 | 48.40205 | 2.15082 | 18935 ft | 363 kts | 222° |
| 2026-05-04 21:06 | 48.38342 | 2.12517 | 18930 ft | 363 kts | 221° |
| 2026-05-04 21:06 | 48.36476 | 2.09960 | 18927 ft | 363 kts | 221° |
| 2026-05-04 21:06 | 48.34607 | 2.07397 | 18929 ft | 363 kts | 222° |
| 2026-05-04 21:07 | 48.32765 | 2.04877 | 18933 ft | 363 kts | 220° |
| 2026-05-04 21:07 | 48.30703 | 2.02705 | 18932 ft | 362 kts | 208° |
| 2026-05-04 21:07 | 48.28352 | 2.01228 | 18931 ft | 362 kts | 195° |
| 2026-05-04 21:07 | 48.25879 | 2.00546 | 18927 ft | 362 kts | 184° |
| 2026-05-04 21:08 | 48.23394 | 2.00543 | 18928 ft | 362 kts | 179° |
| 2026-05-04 21:08 | 48.20877 | 2.00628 | 18930 ft | 362 kts | 179° |
| 2026-05-04 21:08 | 48.18356 | 2.00699 | 18931 ft | 362 kts | 179° |
| 2026-05-04 21:08 | 48.15835 | 2.00760 | 18934 ft | 362 kts | 179° |
| 2026-05-04 21:09 | 48.13311 | 2.00823 | 18934 ft | 362 kts | 179° |
| 2026-05-04 21:09 | 48.10794 | 2.00894 | 18936 ft | 362 kts | 179° |
| 2026-05-04 21:09 | 48.08275 | 2.00967 | 18935 ft | 362 kts | 179° |
| 2026-05-04 21:09 | 48.05743 | 2.01075 | 18941 ft | 365 kts | 178° |
| 2026-05-04 21:10 | 48.03202 | 2.01224 | 18939 ft | 366 kts | 178° |
| 2026-05-04 21:10 | 48.00661 | 2.01391 | 18942 ft | 366 kts | 178° |
| 2026-05-04 21:10 | 47.98108 | 2.01561 | 19191 ft | 369 kts | 178° |
| 2026-05-04 21:10 | 47.95547 | 2.01715 | 19787 ft | 370 kts | 178° |
| 2026-05-04 21:11 | 47.92969 | 2.01872 | 20394 ft | 371 kts | 178° |
| 2026-05-04 21:11 | 47.90384 | 2.02030 | 20976 ft | 373 kts | 178° |
| 2026-05-04 21:11 | 47.87785 | 2.02187 | 21558 ft | 375 kts | 178° |
| 2026-05-04 21:11 | 47.85166 | 2.02346 | 22134 ft | 377 kts | 178° |
| 2026-05-04 21:12 | 47.82537 | 2.02508 | 22705 ft | 379 kts | 178° |
| 2026-05-04 21:12 | 47.79892 | 2.02670 | 23245 ft | 381 kts | 179° |
| 2026-05-04 21:12 | 47.77234 | 2.02829 | 23752 ft | 383 kts | 179° |
| 2026-05-04 21:12 | 47.74573 | 2.02986 | 24258 ft | 383 kts | 179° |
| 2026-05-04 21:13 | 47.71911 | 2.03143 | 24731 ft | 384 kts | 179° |
| 2026-05-04 21:13 | 47.69239 | 2.03298 | 25173 ft | 385 kts | 179° |
| 2026-05-04 21:13 | 47.66551 | 2.03451 | 25612 ft | 386 kts | 179° |
| 2026-05-04 21:13 | 47.63867 | 2.03282 | 26028 ft | 387 kts | 188° |
| 2026-05-04 21:14 | 47.61243 | 2.02405 | 26435 ft | 388 kts | 198° |
| 2026-05-04 21:14 | 47.58710 | 2.00971 | 26840 ft | 390 kts | 201° |
| 2026-05-04 21:14 | 47.56182 | 1.99497 | 27248 ft | 391 kts | 200° |
| 2026-05-04 21:14 | 47.53650 | 1.98025 | 27651 ft | 392 kts | 200° |
| 2026-05-04 21:15 | 47.51104 | 1.96545 | 28036 ft | 394 kts | 200° |
| 2026-05-04 21:15 | 47.48547 | 1.95060 | 28418 ft | 395 kts | 200° |
| 2026-05-04 21:15 | 47.45981 | 1.93571 | 28786 ft | 397 kts | 200° |
| 2026-05-04 21:15 | 47.43412 | 1.92087 | 28906 ft | 393 kts | 200° |
| 2026-05-04 21:16 | 47.40922 | 1.90653 | 28917 ft | 377 kts | 200° |
| 2026-05-04 21:16 | 47.38503 | 1.89259 | 28919 ft | 370 kts | 200° |
| 2026-05-04 21:16 | 47.33728 | 1.86518 | 28920 ft | 367 kts | 200° |
| 2026-05-04 21:17 | 47.28969 | 1.83789 | 28919 ft | 367 kts | 200° |
| 2026-05-04 21:17 | 47.24214 | 1.81066 | 28919 ft | 367 kts | 200° |
| 2026-05-04 21:18 | 47.19455 | 1.78347 | 28916 ft | 367 kts | 200° |
| 2026-05-04 21:18 | 47.14698 | 1.75657 | 28915 ft | 366 kts | 199° |
| 2026-05-04 21:19 | 47.09940 | 1.72980 | 28909 ft | 366 kts | 199° |
| 2026-05-04 21:19 | 47.05187 | 1.70312 | 28908 ft | 366 kts | 199° |
| 2026-05-04 21:20 | 47.00432 | 1.67646 | 28908 ft | 366 kts | 199° |
| 2026-05-04 21:20 | 46.95678 | 1.64982 | 28912 ft | 366 kts | 199° |
| 2026-05-04 21:21 | 46.90928 | 1.62324 | 28932 ft | 365 kts | 199° |
| 2026-05-04 21:21 | 46.86189 | 1.59674 | 28931 ft | 364 kts | 199° |
| 2026-05-04 21:22 | 46.81457 | 1.57045 | 28928 ft | 364 kts | 199° |
| 2026-05-04 21:22 | 46.76733 | 1.54418 | 28922 ft | 363 kts | 199° |
| 2026-05-04 21:23 | 46.72013 | 1.51797 | 28915 ft | 363 kts | 199° |
| 2026-05-04 21:23 | 46.67302 | 1.49190 | 28911 ft | 363 kts | 199° |
| 2026-05-04 21:24 | 46.62580 | 1.46578 | 28906 ft | 363 kts | 199° |
| 2026-05-04 21:24 | 46.57866 | 1.43981 | 28904 ft | 362 kts | 199° |
| 2026-05-04 21:25 | 46.53145 | 1.41381 | 28904 ft | 362 kts | 199° |
| 2026-05-04 21:25 | 46.48436 | 1.38791 | 28905 ft | 362 kts | 198° |
| 2026-05-04 21:26 | 46.43722 | 1.36199 | 28909 ft | 362 kts | 198° |
| 2026-05-04 21:26 | 46.39009 | 1.33620 | 28913 ft | 362 kts | 198° |
| 2026-05-04 21:27 | 46.34297 | 1.31048 | 28917 ft | 362 kts | 198° |
| 2026-05-04 21:27 | 46.29594 | 1.28492 | 28925 ft | 361 kts | 198° |
| 2026-05-04 21:28 | 46.24994 | 1.25990 | 28614 ft | 366 kts | 201° |
| 2026-05-04 21:28 | 46.22686 | 1.24734 | 29070 ft | 373 kts | 198° |
| 2026-05-04 21:28 | 46.20245 | 1.23407 | 28927 ft | 364 kts | 198° |
| 2026-05-04 21:29 | 46.15542 | 1.20856 | 28941 ft | 360 kts | 198° |
| 2026-05-04 21:29 | 46.10883 | 1.18329 | 28947 ft | 355 kts | 198° |
| 2026-05-04 21:30 | 46.06315 | 1.15859 | 28942 ft | 352 kts | 198° |
| 2026-05-04 21:30 | 46.01739 | 1.13380 | 28944 ft | 351 kts | 198° |
| 2026-05-04 21:31 | 45.94876 | 1.09679 | 28948 ft | 351 kts | 198° |
| 2026-05-04 21:32 | 45.90301 | 1.07228 | 28935 ft | 351 kts | 198° |
| 2026-05-04 21:32 | 45.85727 | 1.04785 | 28934 ft | 351 kts | 198° |
| 2026-05-04 21:33 | 45.81438 | 1.01420 | 28946 ft | 359 kts | 216° |
| 2026-05-04 21:33 | 45.79697 | 0.98822 | 28937 ft | 366 kts | 227° |
| 2026-05-04 21:33 | 45.78194 | 0.95867 | 28941 ft | 367 kts | 228° |
| 2026-05-04 21:34 | 45.75195 | 0.89954 | 28918 ft | 367 kts | 227° |
| 2026-05-04 21:34 | 45.72152 | 0.84007 | 28955 ft | 380 kts | 228° |